Time;durP1;ratioP1;P1;durP2;ratioP2;P2;SDS_P1;SDS_P2;PMS_P1;PMS_P2;Temp;Humidity;BMP_temperature;BMP_pressure;BME280_temperature;BME280_humidity;BME280_pressure;Samples;Min_cycle;Max_cycle;Signal;HPM_P1;HPM_P2
2022/10/25 00:01:29;;;;;;;39.95;18.75;;;;;;;;;;5075719;28;20028;-74
2022/10/25 00:03:55;;;;;;;38.50;18.23;;;;;;;;;;5076493;28;20346;-73
2022/10/25 00:06:20;;;;;;;45.78;23.30;;;;;;;;;;5074911;28;20020;-73
2022/10/25 00:08:46;;;;;;;54.42;27.77;;;;;;;;;;5082608;28;20115;-73
2022/10/25 00:11:17;;;;;;;47.70;28.45;;;;;;;;;;5083259;28;20024;-73
2022/10/25 00:13:43;;;;;;;44.65;26.60;;;;;;;;;;5084694;28;20028;-73
2022/10/25 00:16:12;;;;;;;47.35;22.90;;;;;;;;;;5082331;28;20047;-73
2022/10/25 00:18:38;;;;;;;24.58;12.52;;;;;;;;;;5075635;28;20066;-72
2022/10/25 00:21:03;;;;;;;26.42;12.52;;;;;;;;;;5084626;28;20079;-74
2022/10/25 00:23:28;;;;;;;24.38;12.20;;;;;;;;;;5084261;28;20526;-75
2022/10/25 00:26:04;;;;;;;37.75;17.75;;;;;;;;;;5082754;28;21185;-74
2022/10/25 00:28:29;;;;;;;28.15;11.52;;;;;;;;;;5077558;28;20016;-75
2022/10/25 00:31:01;;;;;;;25.00;10.70;;;;;;;;;;5078248;28;20028;-74
2022/10/25 00:33:31;;;;;;;26.02;10.35;;;;;;;;;;5082731;28;20085;-74
2022/10/25 00:36:02;;;;;;;28.52;12.07;;;;;;;;;;5084179;28;20024;-73
2022/10/25 00:38:27;;;;;;;25.88;11.60;;;;;;;;;;5083389;28;20060;-76
2022/10/25 00:40:52;;;;;;;28.83;16.10;;;;;;;;;;5083194;28;21273;-74
2022/10/25 00:43:33;;;;;;;32.08;17.55;;;;;;;;;;5084032;28;20027;-75
2022/10/25 00:46:00;;;;;;;34.03;20.20;;;;;;;;;;5080943;28;20027;-74
2022/10/25 00:48:26;;;;;;;25.48;11.40;;;;;;;;;;5079017;28;20047;-72
2022/10/25 00:50:52;;;;;;;23.25;9.07;;;;;;;;;;5075795;28;20039;-72
2022/10/25 00:53:19;;;;;;;24.30;10.90;;;;;;;;;;5081375;28;20032;-73
2022/10/25 00:55:47;;;;;;;30.10;13.35;;;;;;;;;;5082483;28;20077;-76
2022/10/25 00:58:15;;;;;;;36.22;16.77;;;;;;;;;;5083286;28;20016;-73
2022/10/25 01:00:40;;;;;;;35.63;19.65;;;;;;;;;;5083318;28;20024;-76
2022/10/25 01:03:06;;;;;;;22.63;11.98;;;;;;;;;;5083761;28;20116;-75
2022/10/25 01:05:32;;;;;;;20.48;9.18;;;;;;;;;;5082511;28;20020;-74
2022/10/25 01:07:57;;;;;;;21.13;9.50;;;;;;;;;;5083967;28;20028;-74
2022/10/25 01:10:24;;;;;;;24.50;10.15;;;;;;;;;;5083650;28;20042;-75
2022/10/25 01:12:49;;;;;;;18.25;9.55;;;;;;;;;;5082206;28;20064;-78
2022/10/25 01:15:15;;;;;;;23.13;10.80;;;;;;;;;;5082203;28;20482;-75
2022/10/25 01:17:46;;;;;;;28.67;13.57;;;;;;;;;;5083234;28;20028;-74
2022/10/25 01:20:30;;;;;;;18.27;10.05;;;;;;;;;;5081546;28;20551;-76
2022/10/25 01:23:05;;;;;;;24.25;10.15;;;;;;;;;;5083016;28;20024;-74
2022/10/25 01:25:33;;;;;;;22.45;10.40;;;;;;;;;;5082967;28;20024;-74
2022/10/25 01:28:13;;;;;;;21.25;10.02;;;;;;;;;;5082605;28;20081;-73
2022/10/25 01:30:54;;;;;;;40.08;20.60;;;;;;;;;;5082484;28;20512;-74
2022/10/25 01:33:23;;;;;;;36.97;15.75;;;;;;;;;;5083084;28;20028;-74
2022/10/25 01:35:48;;;;;;;23.42;11.52;;;;;;;;;;5083112;28;20043;-75
2022/10/25 01:38:28;;;;;;;26.27;13.73;;;;;;;;;;5083086;28;20028;-73
2022/10/25 01:41:04;;;;;;;26.05;12.73;;;;;;;;;;5083154;28;21140;-74
2022/10/25 01:43:37;;;;;;;26.02;10.43;;;;;;;;;;5082016;28;20020;-72
2022/10/25 01:46:08;;;;;;;23.73;11.23;;;;;;;;;;5082135;28;20024;-72
2022/10/25 01:48:38;;;;;;;29.52;14.85;;;;;;;;;;5076623;28;20044;-72
2022/10/25 01:51:07;;;;;;;25.75;13.27;;;;;;;;;;5073882;28;20028;-76
2022/10/25 01:53:33;;;;;;;27.40;12.48;;;;;;;;;;5083436;28;20023;-73
2022/10/25 01:56:00;;;;;;;23.85;11.35;;;;;;;;;;5082936;28;20035;-75
2022/10/25 01:58:28;;;;;;;34.45;10.98;;;;;;;;;;5083056;28;20123;-74
2022/10/25 02:00:54;;;;;;;34.67;11.07;;;;;;;;;;5081727;28;20097;-75
2022/10/25 02:03:28;;;;;;;28.48;10.23;;;;;;;;;;5077369;28;20031;-76
2022/10/25 02:06:03;;;;;;;22.02;9.65;;;;;;;;;;5076006;28;20020;-74
2022/10/25 02:08:29;;;;;;;25.38;9.75;;;;;;;;;;5082771;28;20024;-75
2022/10/25 02:10:54;;;;;;;29.40;15.48;;;;;;;;;;5082113;28;20050;-72
2022/10/25 02:13:43;;;;;;;33.20;12.05;;;;;;;;;;5081399;28;20027;-75
2022/10/25 02:16:10;;;;;;;29.53;12.10;;;;;;;;;;5082417;28;20136;-75
2022/10/25 02:18:37;;;;;;;25.35;13.15;;;;;;;;;;5082184;28;20264;-74
2022/10/25 02:21:04;;;;;;;30.10;13.73;;;;;;;;;;5082328;28;20047;-74
2022/10/25 02:23:31;;;;;;;27.30;13.45;;;;;;;;;;5082510;28;20035;-74
2022/10/25 02:25:57;;;;;;;34.72;14.25;;;;;;;;;;5082380;28;21116;-73
2022/10/25 02:28:25;;;;;;;29.45;13.07;;;;;;;;;;5082071;28;20067;-76
2022/10/25 02:30:51;;;;;;;27.40;12.10;;;;;;;;;;5082422;28;20028;-75
2022/10/25 02:33:17;;;;;;;29.40;13.15;;;;;;;;;;5081148;28;20098;-74
2022/10/25 02:35:42;;;;;;;29.75;14.20;;;;;;;;;;5082256;28;20023;-76
2022/10/25 02:38:07;;;;;;;29.00;14.20;;;;;;;;;;5081676;28;20800;-75
2022/10/25 02:40:33;;;;;;;27.50;12.68;;;;;;;;;;5081942;28;20138;-74
2022/10/25 02:42:58;;;;;;;26.38;11.32;;;;;;;;;;5081734;28;20440;-75
2022/10/25 02:45:24;;;;;;;24.90;11.32;;;;;;;;;;5082808;28;20034;-75
2022/10/25 02:47:49;;;;;;;32.17;12.82;;;;;;;;;;5081390;28;20502;-73
2022/10/25 02:50:14;;;;;;;26.05;12.02;;;;;;;;;;5081642;28;20031;-75
2022/10/25 02:52:40;;;;;;;29.08;12.48;;;;;;;;;;5075152;28;20028;-73
2022/10/25 02:55:05;;;;;;;32.45;12.27;;;;;;;;;;5075131;28;20081;-75
2022/10/25 02:57:34;;;;;;;24.20;11.25;;;;;;;;;;5081708;28;20024;-72
2022/10/25 02:59:59;;;;;;;29.40;10.70;;;;;;;;;;5080992;28;20054;-72
2022/10/25 03:02:25;;;;;;;20.52;11.45;;;;;;;;;;5081137;28;20324;-72
2022/10/25 03:04:50;;;;;;;19.55;9.93;;;;;;;;;;5081441;28;20047;-76
2022/10/25 03:07:15;;;;;;;22.90;9.60;;;;;;;;;;5081741;28;20070;-73
2022/10/25 03:09:41;;;;;;;27.20;10.82;;;;;;;;;;5082206;28;20023;-74
2022/10/25 03:12:06;;;;;;;29.42;12.10;;;;;;;;;;5081415;28;20085;-76
2022/10/25 03:14:32;;;;;;;23.40;11.50;;;;;;;;;;5080238;28;20043;-74
2022/10/25 03:16:57;;;;;;;23.85;11.10;;;;;;;;;;5080410;28;20119;-74
2022/10/25 03:19:22;;;;;;;26.67;9.70;;;;;;;;;;5080681;28;20061;-74
2022/10/25 03:21:47;;;;;;;23.05;9.93;;;;;;;;;;5080690;28;20043;-75
2022/10/25 03:24:13;;;;;;;23.13;11.23;;;;;;;;;;5081361;28;20133;-74
2022/10/25 03:26:38;;;;;;;23.42;10.77;;;;;;;;;;5081292;28;20032;-75
2022/10/25 03:29:04;;;;;;;24.67;10.32;;;;;;;;;;5080490;28;20024;-74
2022/10/25 03:31:29;;;;;;;27.67;10.80;;;;;;;;;;5080970;28;20089;-76
2022/10/25 03:33:54;;;;;;;24.45;14.73;;;;;;;;;;5080586;28;20093;-76
2022/10/25 03:36:20;;;;;;;25.92;13.45;;;;;;;;;;5081007;28;20094;-74
2022/10/25 03:38:45;;;;;;;26.45;12.02;;;;;;;;;;5082227;28;20085;-74
2022/10/25 03:41:10;;;;;;;22.30;11.07;;;;;;;;;;5084328;28;20470;-73
2022/10/25 03:43:36;;;;;;;29.63;11.40;;;;;;;;;;5084164;28;20035;-73
2022/10/25 03:46:01;;;;;;;23.52;10.57;;;;;;;;;;5079744;28;20122;-74
2022/10/25 03:48:27;;;;;;;23.70;10.40;;;;;;;;;;5078136;28;20418;-73
2022/10/25 03:50:52;;;;;;;22.33;11.57;;;;;;;;;;5075979;28;20431;-74
2022/10/25 03:53:17;;;;;;;26.98;10.50;;;;;;;;;;5081857;28;20031;-74
2022/10/25 03:55:43;;;;;;;26.63;12.05;;;;;;;;;;5085554;28;20081;-74
2022/10/25 03:58:08;;;;;;;27.70;16.65;;;;;;;;;;5085232;28;20428;-75
2022/10/25 04:00:33;;;;;;;34.28;18.00;;;;;;;;;;5083733;28;20035;-75
2022/10/25 04:02:59;;;;;;;29.33;12.93;;;;;;;;;;5083139;28;20028;-74
2022/10/25 04:05:25;;;;;;;31.23;17.40;;;;;;;;;;5068975;28;20028;-72
2022/10/25 04:07:50;;;;;;;29.92;14.00;;;;;;;;;;5069086;28;20473;-74
2022/10/25 04:10:18;;;;;;;26.40;14.18;;;;;;;;;;5069377;28;20093;-75
2022/10/25 04:12:43;;;;;;;28.77;14.20;;;;;;;;;;5069844;28;20778;-76
2022/10/25 04:15:09;;;;;;;29.13;13.38;;;;;;;;;;5072650;28;20027;-73
2022/10/25 04:17:34;;;;;;;25.52;12.68;;;;;;;;;;5069332;28;20126;-73
2022/10/25 04:19:59;;;;;;;23.65;12.10;;;;;;;;;;5073643;28;20020;-73
2022/10/25 04:22:25;;;;;;;28.63;11.73;;;;;;;;;;5084075;28;20032;-74
2022/10/25 04:24:50;;;;;;;26.45;11.43;;;;;;;;;;5084241;28;20127;-73
2022/10/25 04:27:15;;;;;;;30.20;10.75;;;;;;;;;;5084899;28;20036;-73
2022/10/25 04:29:41;;;;;;;24.50;9.82;;;;;;;;;;5074457;28;20034;-73
2022/10/25 04:32:06;;;;;;;29.63;11.60;;;;;;;;;;5083557;28;20123;-73
2022/10/25 04:34:31;;;;;;;23.15;9.32;;;;;;;;;;5070241;28;20028;-72
2022/10/25 04:36:57;;;;;;;35.90;13.63;;;;;;;;;;5078113;28;20428;-71
2022/10/25 04:39:23;;;;;;;46.88;21.38;;;;;;;;;;5072870;28;20457;-73
2022/10/25 04:41:49;;;;;;;38.78;18.60;;;;;;;;;;5070044;28;20055;-72
2022/10/25 04:44:14;;;;;;;34.08;14.80;;;;;;;;;;5070911;28;20050;-73
2022/10/25 04:46:39;;;;;;;30.80;15.55;;;;;;;;;;5070659;28;20077;-72
2022/10/25 04:49:05;;;;;;;32.05;19.08;;;;;;;;;;5068019;28;20906;-72
2022/10/25 04:51:30;;;;;;;29.38;16.17;;;;;;;;;;5069331;28;20085;-72
2022/10/25 04:53:56;;;;;;;30.25;16.08;;;;;;;;;;5069276;28;20031;-72
2022/10/25 04:56:21;;;;;;;34.78;14.30;;;;;;;;;;5068689;28;20032;-74
2022/10/25 04:58:47;;;;;;;27.17;12.85;;;;;;;;;;5066706;28;20051;-72
2022/10/25 05:01:13;;;;;;;47.67;23.88;;;;;;;;;;5068787;28;20475;-75
2022/10/25 05:03:39;;;;;;;39.20;25.88;;;;;;;;;;5069176;28;20024;-71
2022/10/25 05:06:08;;;;;;;34.22;20.50;;;;;;;;;;5067935;28;20616;-74
2022/10/25 05:08:34;;;;;;;45.42;28.25;;;;;;;;;;5068439;28;20107;-74
2022/10/25 05:10:59;;;;;;;47.67;28.23;;;;;;;;;;5068829;28;20114;-72
2022/10/25 05:13:25;;;;;;;46.40;26.55;;;;;;;;;;5068122;28;20560;-72
2022/10/25 05:15:54;;;;;;;51.35;30.55;;;;;;;;;;5068962;28;20116;-71
2022/10/25 05:18:19;;;;;;;49.13;31.63;;;;;;;;;;5068232;28;20443;-73
2022/10/25 05:20:50;;;;;;;38.20;20.30;;;;;;;;;;5072122;28;20042;-72
2022/10/25 05:23:15;;;;;;;60.08;34.47;;;;;;;;;;5069775;28;20027;-73
2022/10/25 05:25:40;;;;;;;84.05;52.92;;;;;;;;;;5068645;28;20024;-71
2022/10/25 05:28:06;;;;;;;79.13;48.97;;;;;;;;;;5077241;28;20103;-73
2022/10/25 05:30:31;;;;;;;77.90;51.60;;;;;;;;;;5081794;28;20047;-74
2022/10/25 05:32:56;;;;;;;79.40;54.17;;;;;;;;;;5082210;28;20438;-74
2022/10/25 05:35:22;;;;;;;81.10;49.28;;;;;;;;;;5072200;28;20028;-74
2022/10/25 05:37:47;;;;;;;70.30;48.60;;;;;;;;;;5080928;28;20028;-75
2022/10/25 05:40:12;;;;;;;53.08;37.92;;;;;;;;;;5074843;28;20119;-73
2022/10/25 05:42:38;;;;;;;66.05;42.25;;;;;;;;;;5068160;28;20035;-73
2022/10/25 05:45:03;;;;;;;48.58;27.98;;;;;;;;;;5068550;28;20035;-71
2022/10/25 05:47:29;;;;;;;66.03;41.28;;;;;;;;;;5076660;28;20030;-73
2022/10/25 05:49:54;;;;;;;68.57;47.28;;;;;;;;;;5080635;28;20471;-71
2022/10/25 05:52:19;;;;;;;77.30;48.17;;;;;;;;;;5080384;28;20391;-75
2022/10/25 05:54:45;;;;;;;80.43;49.20;;;;;;;;;;5077338;28;20130;-76
2022/10/25 05:57:10;;;;;;;73.15;44.88;;;;;;;;;;5068628;28;20028;-76
2022/10/25 05:59:35;;;;;;;81.18;48.13;;;;;;;;;;5080630;28;20016;-75
2022/10/25 06:02:01;;;;;;;79.80;49.05;;;;;;;;;;5080700;28;20032;-75
2022/10/25 06:04:26;;;;;;;84.28;50.47;;;;;;;;;;5080771;28;20024;-75
2022/10/25 06:06:52;;;;;;;73.07;44.80;;;;;;;;;;5081640;28;20063;-72
2022/10/25 06:09:17;;;;;;;81.95;56.15;;;;;;;;;;5080910;28;20358;-75
2022/10/25 06:11:42;;;;;;;91.78;70.53;;;;;;;;;;5080567;28;20035;-71
2022/10/25 06:14:09;;;;;;;88.45;63.60;;;;;;;;;;5078481;28;20028;-75
2022/10/25 06:16:36;;;;;;;81.40;57.15;;;;;;;;;;5079791;28;20039;-75
2022/10/25 06:19:01;;;;;;;68.68;49.65;;;;;;;;;;5080265;28;20019;-72
2022/10/25 06:21:27;;;;;;;71.28;44.55;;;;;;;;;;5079962;28;20027;-73
2022/10/25 06:23:53;;;;;;;60.63;38.30;;;;;;;;;;5078686;28;20032;-71
2022/10/25 06:26:20;;;;;;;59.55;37.03;;;;;;;;;;5080590;28;20034;-72
2022/10/25 06:28:45;;;;;;;61.92;41.20;;;;;;;;;;5081289;28;20036;-75
2022/10/25 06:31:12;;;;;;;67.35;43.20;;;;;;;;;;5080532;28;20088;-77
2022/10/25 06:33:38;;;;;;;71.38;44.45;;;;;;;;;;5081619;28;21743;-72
2022/10/25 06:36:06;;;;;;;75.75;43.15;;;;;;;;;;5081534;28;20038;-72
2022/10/25 06:38:31;;;;;;;75.05;43.92;;;;;;;;;;5080397;28;20047;-75
2022/10/25 06:40:57;;;;;;;103.95;66.65;;;;;;;;;;5079883;28;20036;-72
2022/10/25 06:43:22;;;;;;;89.15;55.70;;;;;;;;;;5079869;28;20099;-73
2022/10/25 06:45:48;;;;;;;90.95;56.65;;;;;;;;;;5080263;28;20460;-72
2022/10/25 06:48:13;;;;;;;81.68;45.38;;;;;;;;;;5079283;28;20040;-72
2022/10/25 06:50:38;;;;;;;64.15;39.05;;;;;;;;;;5080579;28;20023;-72
2022/10/25 06:53:04;;;;;;;63.72;40.92;;;;;;;;;;5080756;28;20028;-71
2022/10/25 06:55:30;;;;;;;56.25;29.33;;;;;;;;;;5080199;28;20105;-74
2022/10/25 06:57:56;;;;;;;47.08;23.85;;;;;;;;;;5080486;28;20032;-74
2022/10/25 07:00:21;;;;;;;47.17;26.55;;;;;;;;;;5080386;28;20628;-74
2022/10/25 07:02:57;;;;;;;71.20;47.10;;;;;;;;;;5079586;28;20394;-72
2022/10/25 07:05:22;;;;;;;74.82;52.72;;;;;;;;;;5079195;28;20055;-75
2022/10/25 07:07:48;;;;;;;65.35;40.53;;;;;;;;;;5080200;28;20063;-74
2022/10/25 07:10:13;;;;;;;60.15;36.15;;;;;;;;;;5079300;28;20602;-73
2022/10/25 07:12:39;;;;;;;48.75;30.42;;;;;;;;;;5079735;28;20028;-74
2022/10/25 07:15:04;;;;;;;33.20;20.42;;;;;;;;;;5079884;28;20058;-74
2022/10/25 07:17:29;;;;;;;53.90;31.70;;;;;;;;;;5079050;28;20027;-73
2022/10/25 07:19:56;;;;;;;47.45;26.35;;;;;;;;;;5080424;28;20477;-73
2022/10/25 07:22:22;;;;;;;47.35;24.25;;;;;;;;;;5079603;28;20028;-75
2022/10/25 07:24:47;;;;;;;39.70;25.05;;;;;;;;;;5079082;28;20070;-73
2022/10/25 07:27:13;;;;;;;37.05;18.38;;;;;;;;;;5079052;28;20032;-73
2022/10/25 07:29:38;;;;;;;28.70;15.25;;;;;;;;;;5079569;28;20413;-72
2022/10/25 07:32:03;;;;;;;36.00;14.50;;;;;;;;;;5079573;28;20047;-72
2022/10/25 07:34:29;;;;;;;114.03;22.85;;;;;;;;;;5079531;28;20039;-74
2022/10/25 07:36:54;;;;;;;35.47;15.18;;;;;;;;;;5080240;28;20073;-72
2022/10/25 07:39:20;;;;;;;28.52;11.20;;;;;;;;;;5080140;28;20140;-73
2022/10/25 07:41:45;;;;;;;26.77;10.70;;;;;;;;;;5078834;28;20040;-75
2022/10/25 07:44:10;;;;;;;31.40;11.75;;;;;;;;;;5076724;28;20032;-73
2022/10/25 07:46:36;;;;;;;41.47;13.90;;;;;;;;;;5079725;28;20461;-73
2022/10/25 07:49:01;;;;;;;29.52;13.75;;;;;;;;;;5078909;28;20044;-76
2022/10/25 07:51:26;;;;;;;37.78;14.43;;;;;;;;;;5068938;28;20051;-74
2022/10/25 07:53:52;;;;;;;28.75;11.80;;;;;;;;;;5066166;28;20462;-73
2022/10/25 07:56:18;;;;;;;25.85;10.77;;;;;;;;;;5065573;28;21064;-74
2022/10/25 07:58:43;;;;;;;22.58;10.40;;;;;;;;;;5065617;28;20439;-72
2022/10/25 08:01:09;;;;;;;23.45;9.88;;;;;;;;;;5068001;28;20028;-72
2022/10/25 08:03:34;;;;;;;25.73;8.13;;;;;;;;;;5068352;28;20324;-75
2022/10/25 08:06:00;;;;;;;28.05;8.95;;;;;;;;;;5067439;28;20338;-73
2022/10/25 08:08:26;;;;;;;34.70;13.35;;;;;;;;;;5065631;28;20067;-75
2022/10/25 08:10:51;;;;;;;34.35;15.38;;;;;;;;;;5074973;28;20024;-75
2022/10/25 08:13:17;;;;;;;30.92;14.63;;;;;;;;;;5078619;28;20027;-74
2022/10/25 08:15:52;;;;;;;26.05;11.40;;;;;;;;;;5079894;28;20107;-73
2022/10/25 08:18:18;;;;;;;22.52;10.10;;;;;;;;;;5071556;28;20032;-73
2022/10/25 08:20:43;;;;;;;24.05;11.20;;;;;;;;;;5071063;28;20043;-74
2022/10/25 08:23:09;;;;;;;28.00;12.20;;;;;;;;;;5068981;28;20371;-73
2022/10/25 08:25:34;;;;;;;27.48;10.82;;;;;;;;;;5071005;28;20031;-77
2022/10/25 08:27:59;;;;;;;31.00;13.32;;;;;;;;;;5073686;28;20431;-73
2022/10/25 08:30:25;;;;;;;27.73;12.52;;;;;;;;;;5070779;28;20082;-74
2022/10/25 08:32:50;;;;;;;25.58;9.65;;;;;;;;;;5069964;28;20039;-75
2022/10/25 08:35:15;;;;;;;25.52;9.57;;;;;;;;;;5069303;28;20024;-74
2022/10/25 08:37:41;;;;;;;18.70;8.15;;;;;;;;;;5069409;28;20027;-77
2022/10/25 08:40:08;;;;;;;20.70;8.55;;;;;;;;;;5073332;28;20036;-73
2022/10/25 08:42:46;;;;;;;23.85;8.07;;;;;;;;;;5071910;28;20042;-74
2022/10/25 08:45:20;;;;;;;25.75;9.80;;;;;;;;;;5070658;28;20123;-77
2022/10/25 08:47:46;;;;;;;23.52;8.20;;;;;;;;;;5076062;28;20093;-74
2022/10/25 08:50:15;;;;;;;24.30;7.50;;;;;;;;;;5074879;28;20028;-72
2022/10/25 08:52:55;;;;;;;22.08;6.85;;;;;;;;;;5077810;28;20370;-75
2022/10/25 08:55:43;;;;;;;22.20;7.20;;;;;;;;;;5081618;28;20113;-74
2022/10/25 08:58:21;;;;;;;24.58;7.45;;;;;;;;;;5070293;28;20023;-72
2022/10/25 09:00:47;;;;;;;27.48;8.85;;;;;;;;;;5069385;28;20085;-72
2022/10/25 09:03:14;;;;;;;15.35;6.90;;;;;;;;;;5070777;28;20387;-74
2022/10/25 09:05:40;;;;;;;24.38;7.40;;;;;;;;;;5068109;28;20114;-74
2022/10/25 09:08:06;;;;;;;19.58;6.88;;;;;;;;;;5070133;28;20077;-72
2022/10/25 09:10:37;;;;;;;20.45;8.80;;;;;;;;;;5082664;28;20397;-72
2022/10/25 09:13:02;;;;;;;22.83;10.15;;;;;;;;;;5082745;28;20031;-74
2022/10/25 09:15:37;;;;;;;20.88;10.50;;;;;;;;;;5082705;28;21156;-75
2022/10/25 09:18:04;;;;;;;23.85;9.38;;;;;;;;;;5081272;28;20020;-74
2022/10/25 09:20:36;;;;;;;30.55;9.93;;;;;;;;;;5081606;28;20050;-75
2022/10/25 09:23:24;;;;;;;21.10;8.80;;;;;;;;;;5074998;28;20032;-76
2022/10/25 09:26:08;;;;;;;38.30;18.77;;;;;;;;;;5058881;28;20090;-75
2022/10/25 09:28:54;;;;;;;43.15;19.98;;;;;;;;;;5068245;28;21258;-71
2022/10/25 09:31:22;;;;;;;32.78;15.68;;;;;;;;;;5036438;28;20056;-73
2022/10/25 09:33:49;;;;;;;47.70;35.08;;;;;;;;;;5067142;28;20496;-75
2022/10/25 09:36:14;;;;;;;31.95;17.55;;;;;;;;;;5067240;28;20032;-73
2022/10/25 09:38:42;;;;;;;30.42;15.93;;;;;;;;;;5067771;28;20101;-72
2022/10/25 09:41:11;;;;;;;32.78;14.77;;;;;;;;;;5068300;28;20032;-75
2022/10/25 09:43:39;;;;;;;20.60;6.85;;;;;;;;;;5068947;28;20036;-73
2022/10/25 09:46:08;;;;;;;25.20;8.82;;;;;;;;;;5068332;28;20024;-72
2022/10/25 09:48:34;;;;;;;;;;;;;;;;;;5067814;28;20164;-74
2022/10/25 09:51:13;;;;;;;28.37;13.97;;;;;;;;;;5068431;28;20393;-73
2022/10/25 09:53:39;;;;;;;28.38;11.50;;;;;;;;;;5068102;28;20024;-72
2022/10/25 09:56:05;;;;;;;25.88;11.15;;;;;;;;;;5067846;28;20020;-71
2022/10/25 09:58:36;;;;;;;22.83;7.10;;;;;;;;;;5067115;28;20120;-72
2022/10/25 10:01:14;;;;;;;18.50;6.93;;;;;;;;;;5067430;28;20503;-76
2022/10/25 10:03:40;;;;;;;20.38;6.80;;;;;;;;;;5067448;28;20028;-74
2022/10/25 10:06:15;;;;;;;20.70;6.88;;;;;;;;;;5068529;28;20020;-74
2022/10/25 10:08:43;;;;;;;24.65;7.10;;;;;;;;;;5067446;28;20475;-75
2022/10/25 10:11:14;;;;;;;22.23;7.53;;;;;;;;;;5067932;28;20467;-72
2022/10/25 10:13:42;;;;;;;20.98;7.00;;;;;;;;;;5068377;28;20114;-77
2022/10/25 10:16:16;;;;;;;23.83;6.57;;;;;;;;;;5068601;28;20020;-75
2022/10/25 10:18:42;;;;;;;22.70;8.20;;;;;;;;;;5080791;28;20070;-74
2022/10/25 10:21:10;;;;;;;25.02;10.13;;;;;;;;;;5080298;28;20031;-73
2022/10/25 10:23:42;;;;;;;18.45;7.20;;;;;;;;;;5080548;28;20032;-73
2022/10/25 10:26:33;;;;;;;20.15;8.82;;;;;;;;;;5080533;28;20035;-72
2022/10/25 10:29:10;;;;;;;23.10;6.90;;;;;;;;;;5019632;28;20044;-76
2022/10/25 10:31:40;;;;;;;19.05;6.40;;;;;;;;;;5020550;28;20404;-75
2022/10/25 10:34:20;;;;;;;16.58;6.95;;;;;;;;;;5019696;28;20041;-75
2022/10/25 10:36:46;;;;;;;25.25;7.88;;;;;;;;;;5018324;28;20045;-75
2022/10/25 10:39:18;;;;;;;19.42;6.97;;;;;;;;;;5020340;28;20083;-72
2022/10/25 10:41:59;;;;;;;25.00;12.82;;;;;;;;;;5019671;28;20044;-73
2022/10/25 10:44:25;;;;;;;21.13;9.63;;;;;;;;;;5013516;28;20044;-72
2022/10/25 10:46:53;;;;;;;21.73;8.25;;;;;;;;;;5008692;28;20038;-73
2022/10/25 10:49:19;;;;;;;18.95;7.30;;;;;;;;;;5010529;28;20076;-73
2022/10/25 10:51:45;;;;;;;35.17;22.70;;;;;;;;;;5020316;28;20700;-73
2022/10/25 10:54:11;;;;;;;31.95;9.02;;;;;;;;;;5020907;28;20037;-75
2022/10/25 10:56:37;;;;;;;17.63;6.10;;;;;;;;;;5021101;28;20464;-76
2022/10/25 10:59:02;;;;;;;23.52;6.57;;;;;;;;;;5021979;28;20029;-75
2022/10/25 11:01:31;;;;;;;22.35;6.18;;;;;;;;;;5021274;28;20033;-76
2022/10/25 11:03:57;;;;;;;17.95;6.35;;;;;;;;;;5020979;28;20099;-75
2022/10/25 11:06:25;;;;;;;25.08;6.25;;;;;;;;;;5064199;28;20036;-76
2022/10/25 11:09:03;;;;;;;14.43;6.13;;;;;;;;;;5067226;28;20031;-76
2022/10/25 11:11:28;;;;;;;19.42;5.95;;;;;;;;;;5079512;28;20434;-76
2022/10/25 11:13:55;;;;;;;14.63;5.65;;;;;;;;;;5081466;28;20454;-74
2022/10/25 11:16:39;;;;;;;19.10;6.95;;;;;;;;;;5081174;28;20038;-76
2022/10/25 11:19:04;;;;;;;26.17;7.88;;;;;;;;;;5080471;28;20084;-76
2022/10/25 11:21:50;;;;;;;17.17;6.50;;;;;;;;;;5081750;28;20032;-75
2022/10/25 11:24:36;;;;;;;34.92;7.85;;;;;;;;;;5080558;28;20061;-76
2022/10/25 11:27:13;;;;;;;20.98;7.28;;;;;;;;;;5079802;28;20020;-77
2022/10/25 11:29:38;;;;;;;23.10;7.85;;;;;;;;;;5080929;28;20028;-75
2022/10/25 11:32:22;;;;;;;23.38;9.60;;;;;;;;;;5078389;28;20427;-74
2022/10/25 11:34:47;;;;;;;21.20;9.43;;;;;;;;;;5078956;28;20056;-75
2022/10/25 11:37:13;;;;;;;23.48;7.35;;;;;;;;;;5080311;28;20473;-74
2022/10/25 11:39:45;;;;;;;20.58;7.85;;;;;;;;;;5080513;28;20055;-73
2022/10/25 11:42:13;;;;;;;23.65;7.07;;;;;;;;;;5078960;28;20058;-76
2022/10/25 11:44:41;;;;;;;32.60;6.45;;;;;;;;;;5079743;28;20027;-75
2022/10/25 11:47:13;;;;;;;17.23;6.65;;;;;;;;;;5078689;28;20482;-78
2022/10/25 11:49:46;;;;;;;18.42;6.72;;;;;;;;;;5080033;28;20047;-75
2022/10/25 11:52:14;;;;;;;18.77;6.57;;;;;;;;;;5071572;28;20032;-75
2022/10/25 11:54:40;;;;;;;16.73;5.85;;;;;;;;;;5070907;28;20034;-77
2022/10/25 11:57:14;;;;;;;26.00;6.60;;;;;;;;;;5077813;28;20358;-74
2022/10/25 11:59:43;;;;;;;22.30;6.60;;;;;;;;;;5082350;28;20031;-75
2022/10/25 12:02:23;;;;;;;20.20;5.80;;;;;;;;;;5083469;28;20020;-75
2022/10/25 12:05:08;;;;;;;21.02;5.95;;;;;;;;;;5084095;28;20036;-76
2022/10/25 12:07:33;;;;;;;18.95;6.22;;;;;;;;;;5083904;28;20691;-76
2022/10/25 12:10:14;;;;;;;26.63;7.18;;;;;;;;;;5083991;28;20119;-76
2022/10/25 12:12:53;;;;;;;21.67;6.72;;;;;;;;;;5084385;28;20035;-76
2022/10/25 12:15:26;;;;;;;19.48;6.20;;;;;;;;;;5082958;28;20632;-75
2022/10/25 12:17:51;;;;;;;13.90;6.13;;;;;;;;;;5082241;28;20401;-75
2022/10/25 12:20:22;;;;;;;25.55;6.38;;;;;;;;;;5081463;28;20028;-78
2022/10/25 12:22:48;;;;;;;16.17;5.93;;;;;;;;;;5080878;28;20032;-75
2022/10/25 12:25:16;;;;;;;18.92;6.25;;;;;;;;;;5083692;28;20050;-75
2022/10/25 12:27:43;;;;;;;16.70;6.67;;;;;;;;;;5081738;28;20070;-76
2022/10/25 12:30:16;;;;;;;19.65;7.28;;;;;;;;;;5083466;28;20020;-75
2022/10/25 12:32:49;;;;;;;13.77;6.65;;;;;;;;;;5082560;28;20031;-76
2022/10/25 12:35:43;;;;;;;20.08;6.63;;;;;;;;;;5083883;28;20860;-74
2022/10/25 12:38:15;;;;;;;16.83;7.10;;;;;;;;;;5025900;28;20057;-76
2022/10/25 12:40:44;;;;;;;23.98;9.00;;;;;;;;;;5029045;28;20037;-74
2022/10/25 12:43:22;;;;;;;20.27;8.32;;;;;;;;;;5027186;28;20363;-77
2022/10/25 12:46:01;;;;;;;25.08;9.23;;;;;;;;;;5020085;28;20115;-75
2022/10/25 12:48:45;;;;;;;22.67;8.13;;;;;;;;;;5024576;28;20041;-76
2022/10/25 12:51:13;;;;;;;22.52;7.65;;;;;;;;;;5012823;28;20554;-74
2022/10/25 12:53:41;;;;;;;21.08;8.00;;;;;;;;;;5012154;28;20029;-75
2022/10/25 12:56:31;;;;;;;16.97;6.40;;;;;;;;;;5023684;28;20495;-75
2022/10/25 12:58:59;;;;;;;20.65;7.70;;;;;;;;;;5027613;28;20251;-75
2022/10/25 13:01:42;;;;;;;18.90;7.33;;;;;;;;;;5029249;28;20068;-75
2022/10/25 13:04:25;;;;;;;19.42;7.78;;;;;;;;;;5026904;28;20029;-76
2022/10/25 13:06:51;;;;;;;24.65;7.85;;;;;;;;;;5028006;28;20036;-77
2022/10/25 13:09:18;;;;;;;16.77;7.55;;;;;;;;;;5031624;28;20038;-74
2022/10/25 13:11:56;;;;;;;20.42;7.85;;;;;;;;;;5027055;28;20072;-74
2022/10/25 13:14:25;;;;;;;20.02;8.20;;;;;;;;;;5051186;28;20529;-74
2022/10/25 13:16:51;;;;;;;21.02;8.52;;;;;;;;;;5082567;28;20510;-76
2022/10/25 13:19:19;;;;;;;19.90;8.27;;;;;;;;;;5075447;28;20027;-75
2022/10/25 13:21:53;;;;;;;23.13;8.65;;;;;;;;;;5078372;28;20047;-77
2022/10/25 13:24:36;;;;;;;21.40;9.23;;;;;;;;;;5072472;28;20047;-75
2022/10/25 13:27:11;;;;;;;20.75;8.45;;;;;;;;;;5079759;28;20031;-73
2022/10/25 13:29:55;;;;;;;18.42;9.15;;;;;;;;;;5082628;28;20107;-76
2022/10/25 13:32:20;;;;;;;20.95;9.68;;;;;;;;;;5082164;28;20136;-75
2022/10/25 13:34:46;;;;;;;21.27;8.98;;;;;;;;;;5081137;28;20107;-73
2022/10/25 13:37:38;;;;;;;29.95;10.60;;;;;;;;;;5072206;28;20032;-74
2022/10/25 13:40:06;;;;;;;21.58;10.10;;;;;;;;;;5072694;28;20032;-74
2022/10/25 13:42:32;;;;;;;22.13;10.18;;;;;;;;;;5072369;28;20360;-74
2022/10/25 13:45:04;;;;;;;21.77;8.55;;;;;;;;;;5082178;28;20552;-74
2022/10/25 13:47:40;;;;;;;17.30;8.93;;;;;;;;;;5070492;28;20104;-75
2022/10/25 13:50:11;;;;;;;17.50;8.02;;;;;;;;;;5080559;28;20059;-75
2022/10/25 13:52:37;;;;;;;20.00;8.73;;;;;;;;;;5082130;28;20047;-75
2022/10/25 13:55:05;;;;;;;17.27;8.10;;;;;;;;;;5083174;28;20430;-75
2022/10/25 13:57:47;;;;;;;20.77;8.48;;;;;;;;;;5082260;28;20020;-74
2022/10/25 14:00:33;;;;;;;19.48;9.23;;;;;;;;;;5081497;28;20042;-75
2022/10/25 14:03:07;;;;;;;18.13;8.95;;;;;;;;;;5081454;28;20397;-75
2022/10/25 14:05:51;;;;;;;27.33;10.93;;;;;;;;;;5082313;28;20039;-76
2022/10/25 14:08:20;;;;;;;25.15;13.25;;;;;;;;;;5082627;28;20103;-77
2022/10/25 14:10:47;;;;;;;18.02;10.13;;;;;;;;;;5081572;28;20502;-74
2022/10/25 14:13:21;;;;;;;20.92;9.93;;;;;;;;;;5081553;28;20036;-75
2022/10/25 14:15:57;;;;;;;23.63;10.10;;;;;;;;;;5081440;28;20081;-75
2022/10/25 14:18:23;;;;;;;29.80;14.38;;;;;;;;;;5081535;28;20032;-76
2022/10/25 14:20:52;;;;;;;25.52;10.88;;;;;;;;;;5081047;28;20473;-75
2022/10/25 14:23:20;;;;;;;20.70;10.70;;;;;;;;;;5082414;28;20039;-75
2022/10/25 14:26:08;;;;;;;21.98;11.15;;;;;;;;;;5082508;28;20039;-74
2022/10/25 14:28:34;;;;;;;20.13;10.87;;;;;;;;;;5081470;28;20028;-74
2022/10/25 14:31:06;;;;;;;18.50;10.18;;;;;;;;;;5082169;28;20288;-80